Aérodrome :
LOGIN :

S'inscrire | Disclaimer

   EN    FR    IT 

 










Légende :    VFR   VFR Marginal   IFR   IFR Intensif   IFR Très Intensif
Visi : 
Plafond : 
>= 8 km
>= 3000ft
5 à 8 km
1000 à 3000 ft
1500m à 5 km
500 à 1000 ft
800 à 1500m
200 à 500 ft
< 800m
< 200 ft
Symboles :   Orages  Brouillard  Fortes neiges  Fortes précipitations  Vent > 20 kt
SIGMETs :   Divers  Orages  Givrage  Turbulence  Onde Orograph.  Cendres Volcan.






- Altitude de l'aérodrome : 405 ft
- Code IATA : ODH


EGVO - RAF Odiham

DERNIER METAR :
  • 221450Z 11011KT 9999 BKN007 BKN050 09/08 Q0993 RMK GRN GRN

METARs EXPIRÉS :
  • 221420Z 10011KT 9999 SCT015 BKN100 09/08 Q0993 TEMPO FEW015 BKN100 RMK WHT TEMPO BLU
  • 221350Z 10009KT CAVOK 09/08 Q0993 NOSIG RMK BLU BLU
  • 221320Z 13009KT 9999 -RA FEW020 OVC050 09/08 Q0993 NOSIG RMK BLU BLU
  • 221250Z 14011KT 9999 FEW010 BKN060 09/08 Q0994 TEMPO SCT010 BKN060 RMK BLU TEMPO GRN

TAF AMD TAF EGVO
Valide du 22 à 15h jusqu'au 23 à 03h UTC


221455Z 2215/2303 12010KT 9999 BKN045
PROB30
TEMPO 2215/2217 SCT008
PROB30
TEMPO 2217/2221 11015G25KT
PROB40 2219/2223 BKN009
BECMG 2223/2301 -RA BKN009
PROB30
TEMPO 2223/2303 4000 -RADZ



MET'MAP, la Météo Aéronautique d'un coup d'oeil ! - Copyright ORBIFLY Décembre 2007 - Disclaimer

ORBIFLY MET'MAP TEAM :

Programmation & Développement : Alexandra Zaïnal
Conception & Développement : Baudouin d'Aumeries
Co-Programmation & Développement : Marc-Olivier Méhu
Soutien technique & logistique : Manuel Goepfert

Contact : metmap@orbifly.com




SOURCES & CREDITS :

   NOAA